Time;durP1;ratioP1;P1;durP2;ratioP2;P2;SDS_P1;SDS_P2;PMS_P1;PMS_P2;Temp;Humidity;BMP_temperature;BMP_pressure;BME280_temperature;BME280_humidity;BME280_pressure;Samples;Min_cycle;Max_cycle;Signal;HPM_P1;HPM_P2
2022/08/11 00:00:11;;;;;;;9.48;5.10;;;17.50;99.90;;;;;;5080428;28;20365;-75
2022/08/11 00:02:49;;;;;;;9.40;5.18;;;17.40;99.90;;;;;;5058129;28;20036;-74
2022/08/11 00:05:18;;;;;;;9.68;5.80;;;17.40;99.90;;;;;;5064820;28;20062;-76
2022/08/11 00:07:47;;;;;;;9.90;5.32;;;17.40;99.90;;;;;;5080239;28;20028;-75
2022/08/11 00:10:17;;;;;;;10.50;5.78;;;17.40;99.90;;;;;;5064502;28;20066;-74
2022/08/11 00:12:49;;;;;;;12.75;6.80;;;17.40;99.90;;;;;;5059125;28;20512;-75
2022/08/11 00:15:16;;;;;;;9.27;5.88;;;17.40;99.90;;;;;;5078814;28;21571;-76
2022/08/11 00:17:43;;;;;;;16.75;7.13;;;17.40;99.90;;;;;;5074550;28;20143;-76
2022/08/11 00:20:11;;;;;;;13.50;6.90;;;17.40;99.90;;;;;;5081239;28;20040;-74
2022/08/11 00:22:40;;;;;;;10.45;6.82;;;17.40;99.90;;;;;;5061240;28;20040;-76
2022/08/11 00:25:19;;;;;;;10.30;6.75;;;17.40;99.90;;;;;;5078121;28;20044;-75
2022/08/11 00:27:47;;;;;;;9.95;6.43;;;17.30;99.90;;;;;;5064830;28;20051;-75
2022/08/11 00:30:14;;;;;;;15.38;6.65;;;17.30;99.90;;;;;;5080863;28;20047;-75
2022/08/11 00:32:57;;;;;;;11.98;6.82;;;17.30;99.90;;;;;;5080442;28;20044;-78
2022/08/11 00:35:30;;;;;;;11.18;6.72;;;17.30;99.90;;;;;;5092346;28;20103;-74
2022/08/11 00:37:57;;;;;;;12.75;6.68;;;17.30;99.90;;;;;;5088267;28;20064;-74
2022/08/11 00:40:49;;;;;;;12.60;6.82;;;17.30;99.90;;;;;;5063932;28;20137;-74
2022/08/11 00:44:04;;;;;;;8.90;6.35;;;17.30;99.90;;;;;;4977767;28;20061;-76
2022/08/11 00:46:46;;;;;;;14.48;6.85;;;17.20;99.90;;;;;;4893229;29;20127;-76
2022/08/11 00:49:37;;;;;;;10.98;6.35;;;17.20;99.90;;;;;;4892836;29;20082;-75
2022/08/11 00:52:13;;;;;;;11.20;6.07;;;17.30;99.90;;;;;;4899624;29;20047;-75
2022/08/11 00:55:27;;;;;;;10.35;6.20;;;17.20;99.90;;;;;;4887894;29;20326;-75
2022/08/11 00:58:22;;;;;;;13.77;6.13;;;17.10;99.90;;;;;;4891370;29;20048;-77
2022/08/11 01:01:09;;;;;;;7.65;6.10;;;17.10;99.90;;;;;;4874381;29;20048;-76
2022/08/11 01:03:34;;;;;;;10.40;6.47;;;17.00;99.90;;;;;;4886151;29;20055;-75
2022/08/11 01:06:26;;;;;;;9.95;6.40;;;17.00;99.90;;;;;;4889846;29;20071;-75
2022/08/11 01:09:16;;;;;;;11.65;6.25;;;17.00;99.90;;;;;;4848164;29;20057;-74
2022/08/11 01:12:03;;;;;;;10.98;6.28;;;16.90;99.90;;;;;;4838094;29;20460;-75
2022/08/11 01:15:02;;;;;;;9.00;6.10;;;16.90;99.90;;;;;;4851701;29;20504;-75
2022/08/11 01:17:56;;;;;;;9.50;6.75;;;16.80;99.90;;;;;;4838952;29;20476;-77
2022/08/11 01:21:00;;;;;;;11.05;6.45;;;16.80;99.90;;;;;;4871185;29;20120;-79
2022/08/11 01:23:58;;;;;;;10.63;6.60;;;16.80;99.90;;;;;;4883369;29;20064;-76
2022/08/11 01:27:13;;;;;;;16.10;6.47;;;16.80;99.90;;;;;;4856857;29;20052;-76
2022/08/11 01:30:12;;;;;;;9.98;6.75;;;16.90;99.90;;;;;;4873036;29;21406;-77
2022/08/11 01:33:26;;;;;;;11.05;6.75;;;16.80;99.90;;;;;;4881372;28;20050;-76
2022/08/11 01:36:12;;;;;;;9.27;6.65;;;16.80;99.90;;;;;;4946740;28;20053;-78
2022/08/11 01:38:53;;;;;;;20.08;6.50;;;16.70;99.90;;;;;;4945737;28;20054;-75
2022/08/11 01:44:36;;;;;;;11.00;6.60;;;16.70;99.90;;;;;;4946990;28;20554;-75
2022/08/11 01:44:37;;;;;;;12.55;6.68;;;16.70;99.90;;;;;;4948644;28;20046;-74
2022/08/11 01:47:49;;;;;;;11.98;7.35;;;16.70;99.90;;;;;;5021334;28;20041;-73
2022/08/11 01:50:25;;;;;;;12.00;8.13;;;16.70;99.90;;;;;;5024432;28;20037;-76
2022/08/11 01:53:28;;;;;;;13.05;7.40;;;16.60;99.90;;;;;;5037216;28;20065;-76
2022/08/11 01:56:23;;;;;;;12.75;7.20;;;16.60;99.90;;;;;;5074743;28;20062;-75
2022/08/11 01:59:27;;;;;;;14.32;7.43;;;16.50;99.90;;;;;;5084168;28;20044;-74
2022/08/11 02:02:20;;;;;;;12.32;6.70;;;16.50;99.90;;;;;;5087864;28;20126;-76
2022/08/11 02:04:55;;;;;;;8.93;6.90;;;16.50;99.90;;;;;;5057777;28;20055;-74
2022/08/11 02:07:37;;;;;;;12.35;6.50;;;16.50;99.90;;;;;;5076905;28;20133;-75
2022/08/11 02:13:36;;;;;;;14.88;8.82;;;16.50;99.90;;;;;;5074938;28;20202;-74
2022/08/11 02:16:19;;;;;;;10.20;7.35;;;16.50;99.90;;;;;;5016534;28;20390;-78
2022/08/11 02:24:55;;;;;;;12.13;8.60;;;16.40;99.90;;;;;;5017094;28;20052;-73
2022/08/11 02:27:26;;;;;;;13.68;8.55;;;16.30;99.90;;;;;;5023095;28;20161;-75
2022/08/11 02:30:06;;;;;;;12.05;8.75;;;16.30;99.90;;;;;;5015936;28;20044;-76
2022/08/11 02:35:27;;;;;;;12.60;8.45;;;16.30;99.90;;;;;;5022739;28;20132;-75
2022/08/11 02:38:29;;;;;;;14.93;8.57;;;16.30;99.90;;;;;;5006187;28;20508;-77
2022/08/11 02:44:42;;;;;;;18.75;9.77;;;16.20;99.90;;;;;;4984519;28;20045;-76
2022/08/11 02:47:16;;;;;;;10.93;7.60;;;16.20;99.90;;;;;;4998143;28;20501;-75
2022/08/11 02:50:04;;;;;;;10.47;8.10;;;16.20;99.90;;;;;;4995907;28;20053;-77
2022/08/11 02:52:51;;;;;;;10.98;7.53;;;16.10;99.90;;;;;;5008139;28;20045;-76
2022/08/11 02:55:19;;;;;;;12.32;8.60;;;16.10;99.90;;;;;;5035602;28;20168;-76
2022/08/11 02:58:02;;;;;;;12.00;7.88;;;16.00;99.90;;;;;;5007625;28;20130;-75
2022/08/11 03:00:41;;;;;;;11.07;7.22;;;16.10;99.90;;;;;;5013350;28;20064;-75
2022/08/11 03:03:29;;;;;;;8.88;7.07;;;16.00;99.90;;;;;;5022620;28;20052;-77
2022/08/11 03:06:18;;;;;;;16.15;7.82;;;16.00;99.90;;;;;;5026485;28;20083;-75
2022/08/11 03:09:08;;;;;;;13.63;7.18;;;16.00;99.90;;;;;;5009638;28;20049;-76
2022/08/11 03:17:46;;;;;;;15.15;9.23;;;15.80;99.90;;;;;;5088017;28;20050;-77
2022/08/11 03:20:30;;;;;;;12.23;9.38;;;15.90;99.90;;;;;;5081828;28;20036;-74
2022/08/11 03:23:07;;;;;;;11.82;7.82;;;15.90;99.90;;;;;;5088013;28;20083;-74
2022/08/11 03:26:14;;;;;;;9.23;8.07;;;15.90;99.90;;;;;;5084966;28;20074;-78
2022/08/11 03:28:39;;;;;;;15.50;9.63;;;15.80;99.90;;;;;;4973175;28;20068;-75
2022/08/11 03:31:29;;;;;;;9.52;7.72;;;15.80;99.90;;;;;;4983782;28;20377;-75
2022/08/11 03:34:06;;;;;;;13.63;8.10;;;15.80;99.90;;;;;;5000396;28;20050;-77
2022/08/11 03:36:46;;;;;;;13.23;8.77;;;15.90;99.90;;;;;;4982113;28;20105;-74
2022/08/11 03:39:19;;;;;;;13.95;9.70;;;15.70;99.90;;;;;;4990390;28;20088;-76
2022/08/11 03:41:54;;;;;;;17.08;9.82;;;15.70;99.90;;;;;;4989405;28;20428;-76
2022/08/11 03:45:13;;;;;;;21.40;11.90;;;15.70;99.90;;;;;;4990870;28;20064;-76
2022/08/11 03:47:51;;;;;;;13.23;10.50;;;15.80;99.90;;;;;;4922817;29;20036;-77
2022/08/11 03:50:41;;;;;;;16.00;10.88;;;15.90;99.90;;;;;;4930841;29;20143;-75
2022/08/11 03:53:34;;;;;;;16.27;10.07;;;15.80;99.90;;;;;;4932562;28;20039;-78
2022/08/11 03:56:02;;;;;;;16.02;9.95;;;15.80;99.90;;;;;;4936845;28;20117;-74
2022/08/11 03:58:37;;;;;;;12.75;7.97;;;15.80;99.90;;;;;;4934787;29;21031;-76
2022/08/11 04:01:21;;;;;;;14.15;9.13;;;15.70;99.90;;;;;;4937367;28;20189;-76
2022/08/11 04:03:49;;;;;;;13.23;9.15;;;15.80;99.90;;;;;;5000923;28;20114;-76
2022/08/11 04:06:39;;;;;;;17.80;12.05;;;15.70;99.90;;;;;;5010283;28;20037;-75
2022/08/11 04:09:24;;;;;;;19.05;11.80;;;15.80;99.90;;;;;;5018576;28;20049;-78
2022/08/11 04:11:49;;;;;;;18.73;9.90;;;15.80;99.90;;;;;;5008944;28;20049;-75
2022/08/11 04:17:58;;;;;;;18.83;10.95;;;15.80;99.90;;;;;;5009875;28;21689;-75
2022/08/11 04:21:02;;;;;;;16.00;10.43;;;15.80;99.90;;;;;;5010313;28;20045;-75
2022/08/11 04:24:03;;;;;;;20.38;12.95;;;15.90;99.90;;;;;;5034737;28;20048;-79
2022/08/11 04:26:55;;;;;;;27.00;13.90;;;15.90;99.90;;;;;;5028298;28;20056;-77
2022/08/11 04:29:59;;;;;;;20.05;13.27;;;16.10;99.90;;;;;;5009629;28;20056;-75
2022/08/11 04:32:35;;;;;;;29.95;14.35;;;16.20;99.90;;;;;;4955779;28;20054;-76
2022/08/11 04:35:25;;;;;;;21.83;14.70;;;16.20;99.90;;;;;;4975374;28;20042;-77
2022/08/11 04:37:54;;;;;;;23.13;13.35;;;16.20;99.90;;;;;;4980742;28;20050;-77
2022/08/11 04:40:38;;;;;;;26.60;13.85;;;16.20;99.90;;;;;;4965566;28;20078;-76
2022/08/11 04:43:19;;;;;;;26.02;14.07;;;16.30;99.90;;;;;;4968846;28;20497;-77
2022/08/11 04:46:05;;;;;;;22.17;13.68;;;16.30;99.90;;;;;;4952956;28;20529;-73
2022/08/11 05:01:53;;;;;;;18.17;12.05;;;16.50;99.90;;;;;;5017666;28;20443;-76
2022/08/11 05:08:11;;;;;;;18.98;11.32;;;16.70;99.90;;;;;;5003698;28;20092;-75
2022/08/11 05:10:36;;;;;;;18.40;11.35;;;16.70;99.90;;;;;;5058515;28;20121;-76
2022/08/11 05:36:12;;;;;;;12.55;8.35;;;17.20;99.90;;;;;;5074272;28;20043;-71
2022/08/11 05:58:07;;;;;;;14.15;7.72;;;17.90;99.90;;;;;;5075082;28;20170;-75
2022/08/11 06:00:44;;;;;;;10.55;6.75;;;18.00;99.90;;;;;;5076847;28;20055;-75
2022/08/11 06:03:19;;;;;;;10.95;6.32;;;18.10;99.90;;;;;;5072302;28;20051;-72
2022/08/11 06:05:45;;;;;;;9.05;6.68;;;18.10;99.90;;;;;;5060584;28;20265;-75
2022/08/11 06:08:12;;;;;;;24.05;6.70;;;18.20;99.90;;;;;;5065394;28;20054;-72
2022/08/11 06:10:41;;;;;;;14.32;6.68;;;18.30;99.90;;;;;;5083207;28;20047;-73
2022/08/11 06:13:08;;;;;;;16.70;6.80;;;18.40;99.90;;;;;;5064716;28;20113;-74
2022/08/11 06:15:48;;;;;;;9.73;5.82;;;18.40;99.90;;;;;;5084271;28;20131;-74
2022/08/11 06:18:15;;;;;;;11.32;5.97;;;18.50;99.90;;;;;;5062558;28;20085;-76
2022/08/11 06:20:51;;;;;;;10.07;5.68;;;18.50;99.90;;;;;;5074551;28;20051;-73
2022/08/11 06:23:19;;;;;;;12.18;5.53;;;18.60;99.90;;;;;;5075798;28;20044;-73
2022/08/11 06:25:45;;;;;;;15.27;6.15;;;18.70;99.90;;;;;;5077224;28;20086;-72
2022/08/11 06:28:12;;;;;;;19.00;6.38;;;18.80;99.90;;;;;;5069367;28;20123;-74
2022/08/11 06:30:41;;;;;;;9.18;5.57;;;18.80;99.90;;;;;;5060146;28;20052;-73
2022/08/11 06:33:13;;;;;;;7.55;5.07;;;18.90;99.90;;;;;;5072102;28;20067;-75
2022/08/11 06:35:58;;;;;;;11.40;5.72;;;19.00;99.90;;;;;;5074738;28;20646;-73
2022/08/11 06:38:36;;;;;;;10.07;5.60;;;19.10;99.90;;;;;;5076097;28;20071;-75
2022/08/11 06:41:30;;;;;;;12.60;5.65;;;19.10;99.90;;;;;;5073836;28;20050;-72
2022/08/11 06:44:04;;;;;;;11.23;5.47;;;19.10;99.90;;;;;;5058134;28;20079;-73
2022/08/11 06:46:36;;;;;;;8.13;5.72;;;19.20;99.90;;;;;;5063278;28;20063;-73
2022/08/11 06:49:04;;;;;;;8.52;5.18;;;19.30;99.90;;;;;;5075929;28;20143;-74
2022/08/11 06:51:31;;;;;;;12.57;5.13;;;19.30;99.90;;;;;;5077254;28;20060;-72
2022/08/11 06:54:00;;;;;;;23.90;5.78;;;19.50;99.90;;;;;;5073274;28;20056;-72
2022/08/11 07:02:25;;;;;;;9.75;5.00;;;19.60;99.90;;;;;;5075356;28;20097;-72
2022/08/11 07:05:07;;;;;;;9.48;4.75;;;19.80;99.90;;;;;;5076324;28;20043;-71
2022/08/11 07:16:40;;;;;;;13.20;4.30;;;20.10;99.90;;;;;;5072407;28;20507;-70
2022/08/11 07:30:38;;;;;;;14.50;4.03;;;20.60;99.90;;;;;;5023999;28;20536;-73
2022/08/11 07:33:05;;;;;;;14.07;3.60;;;20.70;99.90;;;;;;4984392;28;20072;-73
2022/08/11 07:35:35;;;;;;;15.75;4.00;;;20.70;99.90;;;;;;5001833;28;20061;-72
2022/08/11 07:38:05;;;;;;;8.02;3.92;;;20.80;99.90;;;;;;5011977;28;20148;-72
2022/08/11 07:40:32;;;;;;;8.10;3.75;;;20.90;99.90;;;;;;5000429;28;20049;-73
2022/08/11 07:43:13;;;;;;;6.70;3.60;;;20.90;99.90;;;;;;5004003;28;20053;-76
2022/08/11 07:54:07;;;;;;;5.15;3.10;;;21.20;99.90;;;;;;5015552;28;20037;-75
2022/08/11 07:56:38;;;;;;;5.70;3.10;;;21.30;99.90;;;;;;4988812;28;20502;-75
2022/08/11 08:18:23;;;;;;;;;;;22.30;99.90;;;;;;5080315;28;20155;-75
2022/08/11 08:20:50;;;;;;;5.88;2.15;;;22.30;99.90;;;;;;5078421;28;19946;-73
2022/08/11 08:23:31;;;;;;;11.15;2.95;;;22.40;99.90;;;;;;5074125;28;20114;-74
2022/08/11 08:26:00;;;;;;;9.43;2.25;;;22.40;99.90;;;;;;5079893;28;20076;-74
2022/08/11 08:28:26;;;;;;;11.40;2.67;;;22.60;99.90;;;;;;5083721;28;20040;-75
2022/08/11 08:30:55;;;;;;;6.95;2.17;;;22.70;99.90;;;;;;5084125;28;20119;-73
2022/08/11 08:33:28;;;;;;;8.02;2.10;;;22.80;99.90;;;;;;5066924;28;20048;-76
2022/08/11 08:36:10;;;;;;;3.80;1.95;;;22.90;99.90;;;;;;5080759;28;20051;-75
2022/08/11 08:38:41;;;;;;;5.97;1.90;;;23.00;99.90;;;;;;5074576;28;20075;-74
2022/08/11 08:41:07;;;;;;;4.50;1.83;;;23.00;99.90;;;;;;5059454;28;20056;-74
2022/08/11 08:43:35;;;;;;;15.88;2.30;;;23.20;99.90;;;;;;5061342;28;20353;-76
2022/08/11 08:46:04;;;;;;;7.22;1.90;;;23.30;99.90;;;;;;5078128;28;20052;-75
2022/08/11 08:48:30;;;;;;;5.05;1.90;;;23.50;99.90;;;;;;5057926;28;20204;-75
2022/08/11 08:53:49;;;;;;;6.10;1.83;;;23.60;99.90;;;;;;5074220;28;20108;-74
2022/08/11 08:56:16;;;;;;;4.03;2.00;;;23.90;99.90;;;;;;5075823;28;20046;-74
2022/08/11 08:58:45;;;;;;;8.50;2.45;;;23.90;99.90;;;;;;5075285;28;20194;-74
2022/08/11 09:01:14;;;;;;;5.05;1.83;;;24.00;99.90;;;;;;5061699;28;20453;-74
2022/08/11 09:03:40;;;;;;;4.60;1.63;;;24.20;99.90;;;;;;5057962;28;20064;-76
2022/08/11 09:06:06;;;;;;;4.72;1.60;;;24.30;99.90;;;;;;5072817;28;20052;-76
2022/08/11 09:08:34;;;;;;;8.27;1.70;;;24.40;99.90;;;;;;5063221;28;20087;-74
2022/08/11 09:13:46;;;;;;;6.88;1.60;;;24.60;99.90;;;;;;5073855;28;20051;-74
2022/08/11 09:16:12;;;;;;;2.28;1.75;;;24.70;99.90;;;;;;5078574;28;20040;-75
2022/08/11 09:18:43;;;;;;;7.00;1.70;;;24.80;99.90;;;;;;5075278;28;20098;-75
2022/08/11 09:21:13;;;;;;;3.88;1.70;;;25.00;99.90;;;;;;5077441;28;20118;-75
2022/08/11 09:29:10;;;;;;;6.80;1.60;;;25.40;99.90;;;;;;5080313;28;20040;-76
2022/08/11 09:31:37;;;;;;;5.55;1.75;;;25.50;99.90;;;;;;5070266;28;20550;-75
2022/08/11 09:34:02;;;;;;;3.95;1.85;;;25.60;99.90;;;;;;5078608;28;20400;-75
2022/08/11 09:42:01;;;;;;;6.72;1.90;;;25.90;99.90;;;;;;5072415;28;20430;-74
2022/08/11 09:47:16;;;;;;;;;;;26.10;99.90;;;;;;5071060;28;20441;-76
2022/08/11 09:49:45;;;;;;;7.05;1.60;;;26.20;99.90;;;;;;5080405;28;19920;-76
2022/08/11 09:52:14;;;;;;;7.82;1.75;;;26.40;99.80;;;;;;5066757;28;20047;-77
2022/08/11 09:54:45;;;;;;;3.72;1.73;;;26.50;99.30;;;;;;5068810;28;20048;-75
2022/08/11 09:59:56;;;;;;;3.10;1.50;;;26.50;99.20;;;;;;5075391;28;20400;-75
2022/08/11 10:02:26;;;;;;;9.48;1.50;;;26.70;99.40;;;;;;5062936;28;20059;-75
2022/08/11 10:07:00;;;;;;;5.03;1.85;;;26.80;98.20;;;;;;5064175;28;21783;-74
2022/08/11 10:07:49;;;;;;;4.25;1.73;;;26.90;98.30;;;;;;5077251;28;20036;-71
2022/08/11 10:10:21;;;;;;;4.68;1.58;;;27.10;98.10;;;;;;5083542;28;20161;-74
2022/08/11 10:12:49;;;;;;;6.53;1.45;;;27.20;97.00;;;;;;5064518;28;20048;-72
2022/08/11 10:15:33;;;;;;;3.92;1.45;;;27.20;97.00;;;;;;5057705;28;20467;-74
2022/08/11 10:20:53;;;;;;;4.68;1.55;;;27.40;96.10;;;;;;5077956;28;20040;-74
2022/08/11 10:28:49;;;;;;;4.22;1.40;;;27.50;95.60;;;;;;5075243;28;20055;-75
2022/08/11 10:34:03;;;;;;;2.40;1.33;;;27.90;95.60;;;;;;5076274;28;20368;-74
2022/08/11 10:37:10;;;;;;;3.15;1.30;;;28.30;95.70;;;;;;5061314;28;20483;-76
2022/08/11 10:39:30;;;;;;;3.30;1.40;;;28.60;95.70;;;;;;5075457;28;20437;-75
2022/08/11 10:44:44;;;;;;;3.75;1.40;;;29.10;95.10;;;;;;5081171;28;20076;-75
2022/08/11 11:01:11;;;;;;;8.98;1.38;;;29.90;93.70;;;;;;5076089;28;20039;-77
2022/08/11 11:03:37;;;;;;;2.40;1.27;;;30.00;93.30;;;;;;5073005;28;20040;-76
2022/08/11 11:06:24;;;;;;;3.25;1.40;;;30.00;92.50;;;;;;5081076;28;20040;-75
2022/08/11 11:09:11;;;;;;;6.38;1.40;;;29.70;92.40;;;;;;5061136;28;21304;-74
2022/08/11 11:20:15;;;;;;;9.02;1.50;;;29.80;93.50;;;;;;5078622;28;20062;-73
2022/08/11 11:22:46;;;;;;;3.47;1.30;;;30.10;91.90;;;;;;5073585;28;20059;-74
2022/08/11 11:26:05;;;;;;;3.72;1.20;;;30.30;92.40;;;;;;5071109;28;20039;-74
2022/08/11 11:28:48;;;;;;;11.48;1.80;;;30.30;91.80;;;;;;5066361;28;20344;-74
2022/08/11 11:31:44;;;;;;;2.58;1.10;;;30.70;91.60;;;;;;5090451;28;20051;-72
2022/08/11 11:34:16;;;;;;;3.88;1.33;;;30.90;91.90;;;;;;5087461;28;20056;-73
2022/08/11 11:36:50;;;;;;;3.58;1.38;;;31.10;92.00;;;;;;5078907;28;20541;-74
2022/08/11 11:39:21;;;;;;;4.93;1.23;;;31.40;91.80;;;;;;5082264;28;20139;-74
2022/08/11 11:41:53;;;;;;;6.25;1.60;;;31.70;91.60;;;;;;5080187;28;20080;-74
2022/08/11 11:44:21;;;;;;;3.80;1.30;;;32.10;90.20;;;;;;5066670;28;20150;-75
2022/08/11 11:46:48;;;;;;;6.57;1.08;;;31.80;90.00;;;;;;5081606;28;20031;-74
2022/08/11 11:49:17;;;;;;;1.73;1.05;;;32.20;90.10;;;;;;5074712;28;20044;-73
2022/08/11 11:51:48;;;;;;;4.53;1.20;;;32.30;89.30;;;;;;5091504;28;20074;-74
2022/08/11 11:54:15;;;;;;;3.38;1.30;;;32.30;88.60;;;;;;5084403;28;20040;-75
2022/08/11 11:56:42;;;;;;;3.78;1.10;;;32.30;88.20;;;;;;5080334;28;20130;-74
2022/08/11 12:01:55;;;;;;;3.53;1.50;;;32.30;89.10;;;;;;5076706;28;20044;-74
2022/08/11 12:04:22;;;;;;;4.78;2.00;;;31.70;88.80;;;;;;5077073;28;20036;-75
2022/08/11 12:06:48;;;;;;;2.65;1.60;;;31.60;90.10;;;;;;5076796;28;20032;-76
2022/08/11 12:09:17;;;;;;;3.35;1.20;;;31.70;89.70;;;;;;5079122;28;20117;-75
2022/08/11 12:14:28;;;;;;;3.42;1.30;;;31.90;89.80;;;;;;5075965;28;20126;-76
2022/08/11 12:16:57;;;;;;;9.32;1.45;;;32.40;88.60;;;;;;5069557;28;20621;-74
2022/08/11 12:19:27;;;;;;;3.05;1.30;;;32.50;88.70;;;;;;5073412;28;20052;-74
2022/08/11 12:27:29;;;;;;;2.55;1.30;;;32.40;87.30;;;;;;4999002;28;21002;-75
2022/08/11 12:30:07;;;;;;;3.30;1.00;;;32.40;86.60;;;;;;4982842;28;20334;-73
2022/08/11 12:32:35;;;;;;;3.70;1.25;;;32.10;85.70;;;;;;4998938;28;20524;-76
2022/08/11 12:35:01;;;;;;;6.95;1.10;;;31.90;85.10;;;;;;5001690;28;20088;-74
2022/08/11 12:37:33;;;;;;;5.65;1.17;;;31.80;85.50;;;;;;5018058;28;20057;-75
2022/08/11 12:45:39;;;;;;;4.00;1.10;;;31.80;87.00;;;;;;5002211;28;20053;-75
2022/08/11 12:54:16;;;;;;;2.95;1.10;;;32.60;86.10;;;;;;5016623;28;19917;-74
2022/08/11 13:05:06;;;;;;;3.92;1.25;;;34.40;85.10;;;;;;5068448;28;20055;-76
2022/08/11 13:07:34;;;;;;;4.05;1.05;;;34.00;84.40;;;;;;5063753;28;20163;-75
2022/08/11 13:10:01;;;;;;;5.65;1.20;;;34.60;84.10;;;;;;5059503;28;20486;-75
2022/08/11 13:12:49;;;;;;;2.55;1.13;;;34.70;82.80;;;;;;5062311;28;20070;-75
2022/08/11 13:15:20;;;;;;;4.57;1.00;;;34.80;83.30;;;;;;5078263;28;20040;-77
2022/08/11 13:17:48;;;;;;;4.30;1.10;;;34.50;82.70;;;;;;5073023;28;20043;-76
2022/08/11 13:20:18;;;;;;;3.80;1.30;;;34.00;82.90;;;;;;5061291;28;20074;-76
2022/08/11 13:22:48;;;;;;;5.63;1.35;;;33.70;83.00;;;;;;5070628;28;20480;-76
2022/08/11 13:25:19;;;;;;;1.60;1.02;;;33.80;82.50;;;;;;5072747;28;20048;-77
2022/08/11 13:27:47;;;;;;;3.88;1.10;;;33.50;82.20;;;;;;5074223;28;21336;-78
2022/08/11 13:33:06;;;;;;;2.85;1.10;;;33.90;82.60;;;;;;5075692;28;20085;-76
2022/08/11 13:35:33;;;;;;;2.80;1.00;;;33.90;81.40;;;;;;5075092;28;20063;-74
2022/08/11 13:38:03;;;;;;;2.25;1.00;;;33.30;81.40;;;;;;5056092;28;20540;-76
2022/08/11 13:40:30;;;;;;;3.95;0.90;;;33.60;82.10;;;;;;5075616;28;20158;-76
2022/08/11 13:42:57;;;;;;;3.38;1.10;;;33.80;81.20;;;;;;5069869;28;20396;-74
2022/08/11 13:45:24;;;;;;;4.90;1.30;;;34.50;80.60;;;;;;5072578;28;20080;-75
2022/08/11 13:47:56;;;;;;;3.50;0.95;;;34.90;80.20;;;;;;5068751;28;20094;-75
2022/08/11 13:53:11;;;;;;;5.47;1.10;;;35.20;79.60;;;;;;5073688;28;20048;-75
2022/08/11 13:55:39;;;;;;;1.52;1.00;;;35.20;77.90;;;;;;5059548;28;20055;-75
2022/08/11 13:58:06;;;;;;;2.33;0.90;;;35.00;77.80;;;;;;5067350;28;20207;-74
2022/08/11 14:00:32;;;;;;;4.88;1.00;;;35.00;78.50;;;;;;5058734;28;20116;-75
2022/08/11 14:02:58;;;;;;;3.95;1.08;;;35.30;77.90;;;;;;5063439;28;20056;-75
2022/08/11 14:05:30;;;;;;;2.10;1.00;;;35.60;77.50;;;;;;5061240;28;20358;-75
2022/08/11 14:08:01;;;;;;;2.17;0.90;;;35.80;77.30;;;;;;5064430;28;20619;-76
2022/08/11 14:10:30;;;;;;;2.13;1.00;;;35.70;77.00;;;;;;5068387;28;20047;-72
2022/08/11 14:15:48;;;;;;;6.20;1.30;;;35.70;76.00;;;;;;5071994;28;20103;-75
2022/08/11 14:18:30;;;;;;;3.10;1.13;;;35.70;76.50;;;;;;5055248;28;20060;-77
2022/08/11 14:23:58;;;;;;;2.10;1.20;;;34.80;76.70;;;;;;5073051;28;20143;-75
2022/08/11 14:26:27;;;;;;;3.72;1.08;;;35.00;76.00;;;;;;5069800;28;20044;-75
2022/08/11 14:29:10;;;;;;;2.92;1.23;;;35.20;76.50;;;;;;5071416;28;20558;-75
2022/08/11 14:31:56;;;;;;;5.07;1.10;;;35.20;76.50;;;;;;5058678;28;20056;-75
2022/08/11 14:34:25;;;;;;;1.23;0.93;;;35.30;77.60;;;;;;5059492;28;20040;-75
2022/08/11 14:36:56;;;;;;;4.20;1.30;;;34.90;76.70;;;;;;5082438;28;20138;-76
2022/08/11 14:39:27;;;;;;;2.42;1.13;;;34.80;75.60;;;;;;5080643;28;20036;-76
2022/08/11 14:47:34;;;;;;;3.78;1.08;;;34.40;76.80;;;;;;5089207;28;20143;-75
2022/08/11 14:50:01;;;;;;;8.83;1.60;;;34.30;77.50;;;;;;5078818;28;20123;-75
2022/08/11 14:52:30;;;;;;;4.55;1.50;;;34.10;76.90;;;;;;5075620;28;22412;-75
2022/08/11 14:57:43;;;;;;;9.93;1.40;;;34.10;78.50;;;;;;5072005;28;20036;-75
2022/08/11 15:00:14;;;;;;;3.92;1.20;;;33.80;79.50;;;;;;5059320;28;20048;-75
2022/08/11 15:05:26;;;;;;;4.97;1.17;;;34.20;78.70;;;;;;5074759;28;20047;-76
2022/08/11 15:07:54;;;;;;;4.18;1.50;;;34.00;78.60;;;;;;5060049;28;20032;-75
2022/08/11 15:10:21;;;;;;;8.35;1.50;;;34.10;78.00;;;;;;5074508;28;20039;-75
2022/08/11 15:12:47;;;;;;;3.75;1.50;;;33.80;78.10;;;;;;5068597;28;20124;-75
2022/08/11 15:18:01;;;;;;;7.47;1.42;;;33.80;78.20;;;;;;5077517;28;20087;-75
2022/08/11 15:37:54;;;;;;;4.15;1.52;;;33.40;79.10;;;;;;5001119;28;20077;-76
2022/08/11 15:46:29;;;;;;;7.50;1.25;;;33.00;78.80;;;;;;5002909;28;20845;-76
2022/08/11 15:49:02;;;;;;;5.75;1.25;;;32.70;80.00;;;;;;4998598;28;20134;-75
2022/08/11 15:51:27;;;;;;;;;;;32.90;80.00;;;;;;4993182;28;20393;-74
2022/08/11 15:53:58;;;;;;;3.22;1.10;;;32.30;79.40;;;;;;4998160;28;19921;-75
2022/08/11 15:56:30;;;;;;;4.38;1.30;;;32.50;80.30;;;;;;5012392;28;20058;-73
2022/08/11 16:04:30;;;;;;;4.30;1.30;;;32.50;81.40;;;;;;5030387;28;20040;-74
2022/08/11 16:07:04;;;;;;;4.10;1.80;;;32.70;81.80;;;;;;5061983;28;20044;-74
2022/08/11 16:09:35;;;;;;;4.43;1.50;;;32.50;80.20;;;;;;5075404;28;20122;-75
2022/08/11 16:12:05;;;;;;;2.78;1.13;;;32.50;80.80;;;;;;5056593;28;20063;-74
2022/08/11 16:17:26;;;;;;;7.78;1.90;;;32.10;81.30;;;;;;5075973;28;20171;-74
2022/08/11 16:19:54;;;;;;;3.80;1.45;;;32.20;81.00;;;;;;5062586;28;20052;-74
2022/08/11 16:22:42;;;;;;;4.80;1.48;;;32.20;81.20;;;;;;5080072;28;20051;-75
2022/08/11 16:25:11;;;;;;;4.18;1.30;;;32.10;80.80;;;;;;5066517;28;20037;-75
2022/08/11 16:27:48;;;;;;;4.55;1.27;;;32.00;82.00;;;;;;5083242;28;20044;-75
2022/08/11 16:30:14;;;;;;;4.72;1.80;;;32.30;82.60;;;;;;5077457;28;20044;-75
2022/08/11 16:32:43;;;;;;;3.55;1.30;;;32.30;81.40;;;;;;5080483;28;20051;-74
2022/08/11 16:40:45;;;;;;;5.30;1.20;;;32.10;81.20;;;;;;5083144;28;20040;-74
2022/08/11 16:48:52;;;;;;;11.18;1.60;;;31.60;81.70;;;;;;5086717;28;20127;-74
2022/08/11 16:51:19;;;;;;;3.53;1.08;;;31.40;81.90;;;;;;5083596;28;20055;-72
2022/08/11 16:53:47;;;;;;;8.45;1.50;;;31.30;82.30;;;;;;5077183;28;20044;-75
2022/08/11 16:56:20;;;;;;;12.65;1.40;;;31.10;82.80;;;;;;5067363;28;20142;-75
2022/08/11 17:01:37;;;;;;;7.30;1.60;;;30.80;83.00;;;;;;5074074;28;20058;-74
2022/08/11 17:18:38;;;;;;;6.03;1.35;;;30.20;85.70;;;;;;5082078;28;20491;-74
2022/08/11 17:21:02;;;;;;;8.90;1.52;;;30.20;86.70;;;;;;5077000;28;20127;-72
2022/08/11 17:23:45;;;;;;;2.63;1.50;;;29.90;87.20;;;;;;5078961;28;20437;-74
2022/08/11 17:26:14;;;;;;;6.32;1.55;;;29.70;87.40;;;;;;5070935;28;20177;-74
2022/08/11 17:28:41;;;;;;;3.90;1.40;;;29.70;87.00;;;;;;5070701;28;20055;-75
2022/08/11 17:36:43;;;;;;;6.68;1.50;;;29.20;88.10;;;;;;5073193;28;20408;-73
2022/08/11 17:39:11;;;;;;;5.70;1.67;;;29.10;88.70;;;;;;5080307;28;20047;-73
2022/08/11 17:49:56;;;;;;;3.60;1.50;;;28.40;90.30;;;;;;5071287;28;20040;-74
2022/08/11 18:00:38;;;;;;;3.15;1.70;;;27.90;90.90;;;;;;5074106;28;20044;-75
2022/08/11 18:05:50;;;;;;;6.50;1.63;;;27.70;90.90;;;;;;5074697;28;20040;-75
